Time;durP1;ratioP1;P1;durP2;ratioP2;P2;SDS_P1;SDS_P2;PMS_P1;PMS_P2;Temp;Humidity;BMP_temperature;BMP_pressure;BME280_temperature;BME280_humidity;BME280_pressure;Samples;Min_cycle;Max_cycle;Signal;HPM_P1;HPM_P2
2022/01/30 00:01:50;;;;;;;;;;;11.30;61.10;;;;;;5052096;23;19925;-89
2022/01/30 00:04:16;;;;;;;;;;;11.20;61.00;;;;;;5009400;28;19913;-89
2022/01/30 00:06:44;;;;;;;;;;;11.10;61.30;;;;;;5010926;28;19967;-89
2022/01/30 00:09:16;;;;;;;;;;;11.10;61.20;;;;;;5024098;23;19944;-89
2022/01/30 00:11:46;;;;;;;;;;;11.10;61.30;;;;;;4998759;28;19924;-89
2022/01/30 00:14:14;;;;;;;;;;;11.00;61.60;;;;;;4996719;28;19918;-89
2022/01/30 00:16:43;;;;;;;;;;;10.90;61.60;;;;;;4998537;28;19980;-89
2022/01/30 00:22:46;;;;;;;;;;;10.80;61.80;;;;;;4993841;28;20365;-89
2022/01/30 00:24:54;;;;;;;;;;;10.80;61.60;;;;;;5006126;28;20253;-89
2022/01/30 00:27:28;;;;;;;;;;;10.80;61.70;;;;;;5003150;28;19916;-89
2022/01/30 00:29:53;;;;;;;;;;;10.80;61.60;;;;;;5251396;23;19925;-90
2022/01/30 00:32:19;;;;;;;;;;;10.70;61.30;;;;;;5036557;28;19913;-89
2022/01/30 00:34:44;;;;;;;;;;;10.70;61.30;;;;;;5036122;28;20359;-89
2022/01/30 00:37:10;;;;;;;;;;;10.60;61.40;;;;;;5041383;28;19909;-89
2022/01/30 00:39:35;;;;;;;;;;;10.60;61.40;;;;;;5016986;28;20335;-89
2022/01/30 00:42:01;;;;;;;;;;;10.60;61.50;;;;;;5036599;28;19913;-89
2022/01/30 00:44:26;;;;;;;;;;;10.50;61.50;;;;;;5020781;28;19913;-89
2022/01/30 00:46:53;;;;;;;;;;;10.50;61.80;;;;;;5041536;28;19918;-89
2022/01/30 00:49:18;;;;;;;;;;;10.60;61.20;;;;;;5022590;28;19923;-89
2022/01/30 00:51:44;;;;;;;;;;;10.60;61.30;;;;;;5049663;28;19909;-89
2022/01/30 00:54:09;;;;;;;;;;;10.60;61.60;;;;;;5039907;28;20007;-88
2022/01/30 00:56:35;;;;;;;;;;;10.60;61.50;;;;;;5021856;28;20368;-89
2022/01/30 00:59:00;;;;;;;;;;;10.60;61.30;;;;;;5031307;28;19925;-88
2022/01/30 01:01:25;;;;;;;;;;;10.60;61.20;;;;;;5024591;28;19947;-89
2022/01/30 01:03:51;;;;;;;;;;;10.50;61.10;;;;;;5046881;28;20353;-88
2022/01/30 01:06:16;;;;;;;;;;;10.50;61.00;;;;;;5023796;28;19965;-88
2022/01/30 01:09:01;;;;;;;;;;;10.50;61.10;;;;;;5041120;28;19944;-88
2022/01/30 01:25:00;;;;;;;;;;;10.60;61.80;;;;;;5052649;28;19924;-90
2022/01/30 01:27:25;;;;;;;;;;;10.60;62.00;;;;;;5023556;28;19917;-89
2022/01/30 01:29:51;;;;;;;;;;;10.70;61.80;;;;;;5036396;28;19983;-89
2022/01/30 01:32:16;;;;;;;;;;;10.70;61.90;;;;;;5018408;28;20380;-89
2022/01/30 01:34:42;;;;;;;;;;;10.90;62.10;;;;;;5018512;28;19989;-89
2022/01/30 01:37:10;;;;;;;;;;;10.90;62.00;;;;;;5039685;28;19913;-89
2022/01/30 01:39:35;;;;;;;;;;;11.00;61.90;;;;;;5019116;28;20020;-89
2022/01/30 01:42:01;;;;;;;;;;;11.10;61.50;;;;;;5018686;28;20346;-88
2022/01/30 01:44:38;;;;;;;;;;;11.10;60.80;;;;;;5047002;28;19928;-89
2022/01/30 01:47:04;;;;;;;;;;;11.20;60.90;;;;;;5040901;28;19897;-89
2022/01/30 01:49:32;;;;;;;;;;;11.10;60.30;;;;;;5038439;28;19917;-89
2022/01/30 01:52:18;;;;;;;;;;;11.00;59.80;;;;;;5032595;28;19913;-89
2022/01/30 01:54:52;;;;;;;;;;;11.00;59.40;;;;;;5030271;28;19960;-88
2022/01/30 01:57:18;;;;;;;;;;;10.90;59.40;;;;;;5027708;28;19917;-88
2022/01/30 01:59:44;;;;;;;;;;;10.80;59.60;;;;;;5033266;28;19932;-88
2022/01/30 02:02:09;;;;;;;;;;;10.80;59.60;;;;;;5043911;28;19924;-88
2022/01/30 02:04:37;;;;;;;;;;;10.80;59.70;;;;;;5036976;28;19980;-89
2022/01/30 02:09:38;;;;;;;;;;;10.70;59.70;;;;;;5048992;28;19921;-88
2022/01/30 02:12:04;;;;;;;;;;;10.60;59.80;;;;;;5040540;28;19920;-88
2022/01/30 02:14:43;;;;;;;;;;;10.60;59.80;;;;;;5042071;28;19921;-88
2022/01/30 02:25:36;;;;;;;;;;;10.30;59.90;;;;;;5039004;28;19924;-88
2022/01/30 02:28:08;;;;;;;;;;;10.30;60.00;;;;;;5025027;28;19966;-89
2022/01/30 02:30:36;;;;;;;;;;;10.20;60.00;;;;;;5019862;28;20571;-88
2022/01/30 02:33:02;;;;;;;;;;;10.20;60.00;;;;;;5020483;28;19917;-88
2022/01/30 02:35:28;;;;;;;;;;;10.20;60.20;;;;;;5035093;28;19983;-88
2022/01/30 02:37:56;;;;;;;;;;;10.10;60.50;;;;;;5020645;28;20007;-88
2022/01/30 02:40:22;;;;;;;;;;;10.10;60.60;;;;;;5017605;28;20299;-88
2022/01/30 02:42:51;;;;;;;;;;;10.20;60.60;;;;;;5021782;28;19917;-88
2022/01/30 02:45:18;;;;;;;;;;;10.10;60.50;;;;;;5018396;28;19920;-88
2022/01/30 02:50:35;;;;;;;;;;;10.10;60.50;;;;;;5044620;28;19917;-88
2022/01/30 02:53:03;;;;;;;;;;;10.10;60.80;;;;;;5035253;28;19956;-88
2022/01/30 02:55:29;;;;;;;;;;;10.20;61.00;;;;;;5019052;28;19917;-88
2022/01/30 02:57:54;;;;;;;;;;;10.30;61.30;;;;;;5041252;28;19925;-88
2022/01/30 03:00:20;;;;;;;;;;;10.40;61.50;;;;;;5044671;28;20392;-88
2022/01/30 03:02:45;;;;;;;;;;;10.60;61.40;;;;;;5042056;28;19975;-88
2022/01/30 03:05:11;;;;;;;;;;;10.60;60.90;;;;;;5060822;28;19917;-87
2022/01/30 03:07:36;;;;;;;;;;;10.70;60.50;;;;;;5057630;28;19909;-88
2022/01/30 03:10:02;;;;;;;;;;;10.70;60.40;;;;;;5036601;28;19924;-88
2022/01/30 03:12:28;;;;;;;;;;;10.70;60.10;;;;;;5044775;28;19945;-88
2022/01/30 03:14:53;;;;;;;;;;;10.60;59.90;;;;;;5021088;28;19917;-88
2022/01/30 03:17:19;;;;;;;;;;;10.60;59.90;;;;;;5039571;28;19923;-88
2022/01/30 03:19:44;;;;;;;;;;;10.50;59.70;;;;;;5034566;28;20004;-88
2022/01/30 03:22:10;;;;;;;;;;;10.50;59.80;;;;;;5035671;28;19913;-88
2022/01/30 03:24:37;;;;;;;;;;;10.50;60.00;;;;;;5032762;28;19931;-89
2022/01/30 03:27:03;;;;;;;;;;;10.40;60.20;;;;;;5036276;28;19913;-88
2022/01/30 03:29:29;;;;;;;;;;;10.50;60.30;;;;;;5047515;28;19921;-87
2022/01/30 03:31:54;;;;;;;;;;;10.50;60.20;;;;;;5039422;28;19913;-88
2022/01/30 03:34:20;;;;;;;;;;;10.50;60.30;;;;;;5036355;28;19990;-88
2022/01/30 03:36:45;;;;;;;;;;;10.50;60.20;;;;;;5036629;28;20329;-88
2022/01/30 03:39:11;;;;;;;;;;;10.50;60.10;;;;;;5034281;28;20372;-88
2022/01/30 03:41:36;;;;;;;;;;;10.40;59.80;;;;;;5034088;28;19925;-88
2022/01/30 03:44:02;;;;;;;;;;;10.50;59.90;;;;;;5054319;28;20340;-88
2022/01/30 03:46:27;;;;;;;;;;;10.50;59.70;;;;;;5035830;28;19921;-88
2022/01/30 03:48:52;;;;;;;;;;;10.50;59.60;;;;;;5026562;28;19924;-88
2022/01/30 03:51:18;;;;;;;;;;;10.40;59.60;;;;;;5060651;28;19921;-88
2022/01/30 03:53:43;;;;;;;;;;;10.30;59.30;;;;;;5051302;28;19918;-88
2022/01/30 03:56:09;;;;;;;;;;;10.20;59.60;;;;;;5017465;28;20047;-88
2022/01/30 03:58:35;;;;;;;;;;;10.20;59.50;;;;;;5038030;28;20392;-88
2022/01/30 04:01:01;;;;;;;;;;;10.20;59.40;;;;;;5039463;28;19976;-88
2022/01/30 04:03:26;;;;;;;;;;;10.10;59.70;;;;;;5032656;28;20997;-88
2022/01/30 04:05:52;;;;;;;;;;;10.10;59.50;;;;;;5030679;28;19908;-88
2022/01/30 04:08:17;;;;;;;;;;;10.00;59.70;;;;;;5054918;28;19978;-87
2022/01/30 04:10:44;;;;;;;;;;;10.00;59.50;;;;;;5057220;28;20422;-88
2022/01/30 04:13:09;;;;;;;;;;;10.00;59.80;;;;;;5023164;28;20374;-88
2022/01/30 04:15:35;;;;;;;;;;;9.90;59.90;;;;;;5038029;28;19913;-88
2022/01/30 04:18:01;;;;;;;;;;;9.90;60.10;;;;;;5043856;28;19935;-88
2022/01/30 04:20:27;;;;;;;;;;;10.00;60.40;;;;;;5020617;28;19932;-88
2022/01/30 04:22:53;;;;;;;;;;;10.10;60.80;;;;;;5042661;28;19920;-88
2022/01/30 04:25:19;;;;;;;;;;;10.20;60.90;;;;;;5045223;28;19917;-88
2022/01/30 04:27:44;;;;;;;;;;;10.40;61.00;;;;;;5058699;28;19909;-88
2022/01/30 04:30:11;;;;;;;;;;;10.50;60.50;;;;;;5022653;28;19927;-88
2022/01/30 04:32:41;;;;;;;;;;;10.60;60.30;;;;;;5022696;28;19920;-87
2022/01/30 04:35:12;;;;;;;;;;;10.70;60.20;;;;;;5024252;28;19917;-88
2022/01/30 04:56:56;;;;;;;;;;;10.20;59.10;;;;;;5039786;28;19913;-88
2022/01/30 05:02:06;;;;;;;;;;;10.10;59.30;;;;;;5055845;28;20039;-88
2022/01/30 05:09:32;;;;;;;;;;;10.00;59.70;;;;;;5067443;28;19920;-88
2022/01/30 05:11:58;;;;;;;;;;;10.00;59.30;;;;;;5049559;28;19909;-88
2022/01/30 05:14:26;;;;;;;;;;;10.00;59.60;;;;;;5051553;28;19916;-88
2022/01/30 05:16:52;;;;;;;;;;;10.00;59.30;;;;;;5048121;28;20655;-87
2022/01/30 05:19:27;;;;;;;;;;;9.90;59.20;;;;;;5053710;28;19936;-88
2022/01/30 05:21:53;;;;;;;;;;;9.90;59.30;;;;;;5052322;28;19920;-88
2022/01/30 05:24:18;;;;;;;;;;;9.90;59.40;;;;;;5050514;28;19921;-88
2022/01/30 05:26:44;;;;;;;;;;;9.80;59.30;;;;;;5049175;28;19920;-88
2022/01/30 05:29:09;;;;;;;;;;;9.80;59.10;;;;;;5028299;28;20392;-88
2022/01/30 05:31:35;;;;;;;;;;;9.80;59.40;;;;;;5031139;28;19913;-87
2022/01/30 05:34:01;;;;;;;;;;;9.80;59.20;;;;;;5004908;28;19945;-88
2022/01/30 05:36:27;;;;;;;;;;;9.70;59.40;;;;;;5002668;28;19941;-87
2022/01/30 05:38:52;;;;;;;;;;;9.70;59.40;;;;;;5016869;28;20391;-87
2022/01/30 05:41:18;;;;;;;;;;;9.70;59.30;;;;;;5020503;28;19909;-88
2022/01/30 05:43:46;;;;;;;;;;;9.70;59.30;;;;;;5039629;28;20264;-88
2022/01/30 05:46:16;;;;;;;;;;;9.70;59.30;;;;;;5018683;28;20926;-88
2022/01/30 05:48:42;;;;;;;;;;;9.70;59.40;;;;;;5036140;28;19928;-88
2022/01/30 05:51:07;;;;;;;;;;;9.70;59.60;;;;;;5039117;28;19917;-89
2022/01/30 05:53:33;;;;;;;;;;;9.60;59.50;;;;;;5035826;28;19917;-88
2022/01/30 05:55:58;;;;;;;;;;;9.60;59.20;;;;;;5034995;28;19948;-88
2022/01/30 05:58:24;;;;;;;;;;;9.60;59.30;;;;;;5028624;28;19917;-87
2022/01/30 06:00:49;;;;;;;;;;;9.60;59.50;;;;;;5012526;28;19926;-88
2022/01/30 06:03:15;;;;;;;;;;;9.60;59.20;;;;;;5021772;28;19917;-88
2022/01/30 06:05:41;;;;;;;;;;;9.60;59.30;;;;;;5040683;28;19909;-88
2022/01/30 06:08:28;;;;;;;;;;;9.60;59.30;;;;;;5021169;28;19917;-88
2022/01/30 06:10:53;;;;;;;;;;;9.60;59.40;;;;;;5017129;28;19924;-88
2022/01/30 06:13:19;;;;;;;;;;;9.60;59.30;;;;;;5014698;28;19917;-88
2022/01/30 06:15:44;;;;;;;;;;;9.60;59.30;;;;;;5001719;28;19917;-89
2022/01/30 06:18:10;;;;;;;;;;;9.50;59.40;;;;;;5025059;28;20284;-88
2022/01/30 06:20:35;;;;;;;;;;;9.50;59.30;;;;;;4987251;28;20468;-88
2022/01/30 06:23:01;;;;;;;;;;;9.50;59.00;;;;;;5006377;28;19916;-87
2022/01/30 06:25:26;;;;;;;;;;;9.50;59.00;;;;;;5024364;28;19916;-88
2022/01/30 06:27:52;;;;;;;;;;;9.50;58.90;;;;;;5038163;28;20380;-88
2022/01/30 06:30:21;;;;;;;;;;;9.50;58.80;;;;;;5042987;28;20407;-88
2022/01/30 06:32:47;;;;;;;;;;;9.50;59.10;;;;;;5016830;28;19928;-87
2022/01/30 06:35:13;;;;;;;;;;;9.50;59.20;;;;;;5018877;28;20000;-88
2022/01/30 06:37:38;;;;;;;;;;;9.50;59.40;;;;;;5018149;28;19917;-88
2022/01/30 06:40:04;;;;;;;;;;;9.50;59.10;;;;;;5035036;28;19921;-88
2022/01/30 06:42:30;;;;;;;;;;;9.50;59.30;;;;;;5011989;28;19921;-88
2022/01/30 06:44:55;;;;;;;;;;;9.60;59.30;;;;;;5012007;28;20353;-87
2022/01/30 06:47:21;;;;;;;;;;;9.70;59.40;;;;;;5015296;28;19928;-87
2022/01/30 06:49:46;;;;;;;;;;;9.70;59.20;;;;;;5024585;28;19953;-88
2022/01/30 06:52:12;;;;;;;;;;;9.70;59.20;;;;;;5009862;28;19906;-87
2022/01/30 06:54:38;;;;;;;;;;;9.60;59.00;;;;;;5005295;28;19917;-87
2022/01/30 06:57:04;;;;;;;;;;;9.60;59.00;;;;;;5004375;28;19960;-87
2022/01/30 06:59:30;;;;;;;;;;;9.50;58.90;;;;;;5007880;28;19921;-87
2022/01/30 07:01:55;;;;;;;;;;;9.50;59.00;;;;;;5020999;28;19928;-88
2022/01/30 07:04:20;;;;;;;;;;;9.40;58.90;;;;;;5015086;28;20000;-88
2022/01/30 07:06:46;;;;;;;;;;;9.40;59.10;;;;;;5006247;28;20436;-89
2022/01/30 07:09:11;;;;;;;;;;;9.40;59.00;;;;;;5031234;28;19949;-87
2022/01/30 07:11:37;;;;;;;;;;;9.30;59.10;;;;;;5017561;28;19914;-90
2022/01/30 07:14:02;;;;;;;;;;;9.40;59.30;;;;;;5038766;28;20009;-87
2022/01/30 07:16:28;;;;;;;;;;;9.30;59.20;;;;;;5033161;28;19928;-89
2022/01/30 07:18:53;;;;;;;;;;;9.30;59.30;;;;;;4998559;28;19985;-89
2022/01/30 07:21:19;;;;;;;;;;;9.30;59.20;;;;;;5035197;28;19977;-89
2022/01/30 07:23:44;;;;;;;;;;;9.40;59.80;;;;;;5035242;28;19936;-89
2022/01/30 07:26:10;;;;;;;;;;;9.40;60.00;;;;;;5037639;28;22181;-89
2022/01/30 07:28:35;;;;;;;;;;;9.50;60.40;;;;;;5017934;28;19915;-89
2022/01/30 07:31:01;;;;;;;;;;;9.70;60.50;;;;;;5037883;28;19924;-87
2022/01/30 07:33:26;;;;;;;;;;;9.80;60.60;;;;;;5020344;28;19950;-87
2022/01/30 07:35:54;;;;;;;;;;;10.00;60.50;;;;;;5019671;28;19921;-89
2022/01/30 07:38:21;;;;;;;;;;;10.10;60.40;;;;;;5037917;28;19917;-88
2022/01/30 07:40:47;;;;;;;;;;;10.20;60.40;;;;;;5018167;28;20407;-89
2022/01/30 07:43:12;;;;;;;;;;;10.30;60.30;;;;;;5021896;28;19909;-89
2022/01/30 07:45:38;;;;;;;;;;;10.50;59.90;;;;;;5039126;28;19921;-89
2022/01/30 07:48:03;;;;;;;;;;;10.50;59.90;;;;;;5006445;28;20389;-90
2022/01/30 07:50:29;;;;;;;;;;;10.60;59.70;;;;;;5008770;28;20384;-90
2022/01/30 07:52:54;;;;;;;;;;;10.70;59.60;;;;;;5023158;28;20022;-88
2022/01/30 07:55:20;;;;;;;;;;;10.70;59.50;;;;;;5019268;28;19913;-88
2022/01/30 07:57:46;;;;;;;;;;;10.80;59.60;;;;;;5030261;28;19917;-88
2022/01/30 08:00:12;;;;;;;;;;;10.80;59.70;;;;;;5029106;28;20032;-88
2022/01/30 08:02:37;;;;;;;;;;;10.80;59.60;;;;;;5016840;28;19921;-89
2022/01/30 08:05:03;;;;;;;;;;;10.80;59.70;;;;;;5020355;28;19913;-88
2022/01/30 08:07:29;;;;;;;;;;;10.80;59.90;;;;;;5040045;28;19913;-88
2022/01/30 08:09:55;;;;;;;;;;;10.80;60.10;;;;;;5020228;28;19914;-89
2022/01/30 08:12:20;;;;;;;;;;;10.80;60.40;;;;;;5044174;28;19917;-88
2022/01/30 08:14:46;;;;;;;;;;;10.80;60.40;;;;;;5040004;28;20476;-89
2022/01/30 08:17:18;;;;;;;;;;;10.80;60.60;;;;;;5017772;28;19932;-89
2022/01/30 08:19:45;;;;;;;;;;;10.80;60.70;;;;;;5016516;28;19928;-89
2022/01/30 08:22:11;;;;;;;;;;;10.80;60.90;;;;;;5026908;28;19921;-89
2022/01/30 08:24:36;;;;;;;;;;;10.80;61.10;;;;;;5041002;28;19920;-88
2022/01/30 08:27:02;;;;;;;;;;;10.90;61.00;;;;;;5017714;28;19925;-88
2022/01/30 08:29:27;;;;;;;;;;;10.90;61.00;;;;;;5036521;28;20012;-89
2022/01/30 08:31:53;;;;;;;;;;;10.90;61.10;;;;;;5018285;28;20372;-89
2022/01/30 08:34:18;;;;;;;;;;;10.90;60.60;;;;;;5018904;28;20363;-89
2022/01/30 08:36:44;;;;;;;;;;;10.90;60.80;;;;;;5026997;28;19913;-88
2022/01/30 08:39:09;;;;;;;;;;;11.00;60.90;;;;;;5018379;28;19957;-88
2022/01/30 08:41:35;;;;;;;;;;;11.00;61.10;;;;;;5033160;28;20015;-88
2022/01/30 08:44:00;;;;;;;;;;;11.10;61.00;;;;;;5036555;28;19962;-88
2022/01/30 08:46:25;;;;;;;;;;;11.20;60.90;;;;;;5036984;28;20000;-88
2022/01/30 08:48:51;;;;;;;;;;;11.20;60.50;;;;;;5025688;28;19917;-89
2022/01/30 08:51:16;;;;;;;;;;;11.20;60.60;;;;;;5045927;28;19992;-89
2022/01/30 08:53:42;;;;;;;;;;;11.30;60.40;;;;;;5036084;28;20427;-89
2022/01/30 08:56:07;;;;;;;;;;;11.40;60.50;;;;;;5040830;28;19913;-89
2022/01/30 08:58:33;;;;;;;;;;;11.40;60.70;;;;;;5038372;28;19913;-88
2022/01/30 09:00:58;;;;;;;;;;;11.50;60.50;;;;;;5036264;28;19925;-89
2022/01/30 09:03:24;;;;;;;;;;;11.50;60.70;;;;;;5019857;28;20265;-89
2022/01/30 09:05:49;;;;;;;;;;;11.60;60.90;;;;;;5018149;28;19963;-88
2022/01/30 09:08:15;;;;;;;;;;;11.80;61.00;;;;;;5018620;28;19909;-88
2022/01/30 09:10:41;;;;;;;;;;;11.90;60.90;;;;;;5036593;28;19913;-88
2022/01/30 09:13:07;;;;;;;;;;;12.00;61.10;;;;;;5049603;28;19909;-89
2022/01/30 09:15:40;;;;;;;;;;;12.20;61.30;;;;;;5057823;28;19924;-88
2022/01/30 09:18:08;;;;;;;;;;;12.40;61.60;;;;;;5028852;28;19909;-89
2022/01/30 09:20:35;;;;;;;;;;;12.70;62.50;;;;;;5044483;28;19988;-89
2022/01/30 09:23:00;;;;;;;;;;;13.00;63.00;;;;;;5031400;28;19894;-89
2022/01/30 09:25:36;;;;;;;;;;;13.30;63.10;;;;;;5054391;28;19913;-88
2022/01/30 09:28:01;;;;;;;;;;;13.70;62.90;;;;;;5056091;28;19947;-89
2022/01/30 09:30:27;;;;;;;;;;;14.10;63.40;;;;;;5055094;28;19949;-89
2022/01/30 09:32:52;;;;;;;;;;;14.60;63.50;;;;;;5039044;28;19893;-88
2022/01/30 09:35:18;;;;;;;;;;;15.00;62.30;;;;;;5072684;28;20007;-89
2022/01/30 09:37:43;;;;;;;;;;;15.20;61.40;;;;;;5037872;28;19920;-88
2022/01/30 09:40:09;;;;;;;;;;;15.40;60.20;;;;;;5050959;28;19925;-89
2022/01/30 09:42:35;;;;;;;;;;;15.40;59.30;;;;;;5050825;28;19913;-89
2022/01/30 09:45:04;;;;;;;;;;;15.50;57.30;;;;;;5049355;28;19992;-89
2022/01/30 09:47:30;;;;;;;;;;;15.40;55.30;;;;;;5034703;28;19913;-89
2022/01/30 09:49:56;;;;;;;;;;;15.30;55.10;;;;;;5034969;28;19933;-89
2022/01/30 09:52:21;;;;;;;;;;;15.20;53.60;;;;;;5034712;28;19917;-89
2022/01/30 09:54:47;;;;;;;;;;;15.10;52.80;;;;;;5037884;28;19917;-88
2022/01/30 09:57:13;;;;;;;;;;;15.00;52.00;;;;;;5033183;28;19913;-89
2022/01/30 09:59:39;;;;;;;;;;;14.90;52.20;;;;;;5035245;28;19964;-89
2022/01/30 10:02:05;;;;;;;;;;;14.80;51.40;;;;;;5035858;28;19905;-90
2022/01/30 10:04:31;;;;;;;;;;;14.60;51.00;;;;;;5035833;28;19917;-89
2022/01/30 10:07:01;;;;;;;;;;;14.50;51.50;;;;;;5051559;28;19937;-89
2022/01/30 10:09:29;;;;;;;;;;;14.30;51.00;;;;;;5051723;28;19918;-89
2022/01/30 10:12:12;;;;;;;;;;;14.30;52.50;;;;;;5047052;28;19909;-89
2022/01/30 10:14:51;;;;;;;;;;;14.40;51.80;;;;;;5035663;28;19932;-89
2022/01/30 10:17:31;;;;;;;;;;;14.60;52.00;;;;;;5023495;28;19918;-88
2022/01/30 10:20:03;;;;;;;;;;;14.90;52.90;;;;;;5026764;28;19936;-89
2022/01/30 10:22:28;;;;;;;;;;;15.20;50.70;;;;;;5033717;28;19940;-89
2022/01/30 10:24:54;;;;;;;;;;;15.20;46.80;;;;;;5010654;28;19921;-89
2022/01/30 10:27:23;;;;;;;;;;;15.10;47.60;;;;;;5020386;28;19948;-88
2022/01/30 10:30:05;;;;;;;;;;;15.00;46.40;;;;;;5021805;28;19921;-89
2022/01/30 10:32:31;;;;;;;;;;;14.80;46.40;;;;;;5044327;28;19987;-89
2022/01/30 10:35:06;;;;;;;;;;;14.70;45.70;;;;;;5024116;28;19956;-89
2022/01/30 10:37:32;;;;;;;;;;;14.50;45.10;;;;;;5046926;28;19917;-90
2022/01/30 10:40:12;;;;;;;;;;;14.50;47.00;;;;;;5035853;28;19933;-89
2022/01/30 10:42:39;;;;;;;;;;;14.50;48.20;;;;;;5027427;28;20368;-90
2022/01/30 10:45:06;;;;;;;;;;;14.40;45.70;;;;;;5041577;28;19913;-90
2022/01/30 10:47:32;;;;;;;;;;;14.30;45.60;;;;;;5041774;28;20006;-90
2022/01/30 10:50:01;;;;;;;;;;;14.30;46.50;;;;;;5021635;28;19921;-90
2022/01/30 10:52:26;;;;;;;;;;;14.20;46.00;;;;;;5042490;28;19932;-91
2022/01/30 10:55:02;;;;;;;;;;;14.20;46.50;;;;;;5029428;28;19921;-90
2022/01/30 10:57:27;;;;;;;;;;;14.20;47.30;;;;;;5045398;28;19917;-90
2022/01/30 10:59:56;;;;;;;;;;;14.10;46.90;;;;;;5046534;28;19924;-89
2022/01/30 11:02:22;;;;;;;;;;;14.00;45.50;;;;;;5045012;28;20269;-90
2022/01/30 11:04:50;;;;;;;;;;;14.20;47.20;;;;;;5043277;28;20545;-90
2022/01/30 11:07:20;;;;;;;;;;;14.30;47.10;;;;;;5022224;28;19917;-89
2022/01/30 11:09:57;;;;;;;;;;;14.40;46.70;;;;;;5045801;28;19916;-89
2022/01/30 11:12:33;;;;;;;;;;;14.40;46.40;;;;;;5026319;28;19913;-90
2022/01/30 11:15:16;;;;;;;;;;;14.40;44.30;;;;;;5027869;28;19941;-90
2022/01/30 11:17:43;;;;;;;;;;;14.30;44.50;;;;;;5044677;28;19988;-91
2022/01/30 11:20:10;;;;;;;;;;;14.30;44.80;;;;;;5045108;28;19925;-90
2022/01/30 11:22:37;;;;;;;;;;;14.40;45.10;;;;;;5010412;28;19975;-89
2022/01/30 11:25:04;;;;;;;;;;;14.40;45.20;;;;;;5017897;28;19916;-89
2022/01/30 11:27:31;;;;;;;;;;;14.30;44.20;;;;;;5044034;28;20335;-89
2022/01/30 11:29:58;;;;;;;;;;;14.30;44.00;;;;;;5042706;28;19916;-90
2022/01/30 11:32:24;;;;;;;;;;;14.20;42.20;;;;;;5038902;28;19913;-90
2022/01/30 11:34:50;;;;;;;;;;;14.20;43.10;;;;;;5038448;28;19979;-90
2022/01/30 11:37:16;;;;;;;;;;;14.20;42.70;;;;;;5035730;28;19913;-89
2022/01/30 11:39:44;;;;;;;;;;;14.20;43.10;;;;;;5033635;28;20309;-89
2022/01/30 11:42:11;;;;;;;;;;;14.20;42.50;;;;;;5035965;28;20303;-88
2022/01/30 11:44:37;;;;;;;;;;;14.20;41.40;;;;;;5036838;28;19925;-89
2022/01/30 11:47:02;;;;;;;;;;;14.20;41.40;;;;;;5036025;28;19917;-89
2022/01/30 11:49:37;;;;;;;;;;;14.20;41.90;;;;;;5040228;28;19921;-90
2022/01/30 11:52:03;;;;;;;;;;;14.20;41.80;;;;;;5014343;28;19920;-88
2022/01/30 11:54:40;;;;;;;;;;;14.30;42.30;;;;;;5034738;28;19913;-88
2022/01/30 11:57:18;;;;;;;;;;;14.30;41.10;;;;;;5031065;28;19920;-89
2022/01/30 11:59:45;;;;;;;;;;;14.30;42.10;;;;;;5001840;28;20377;-89
2022/01/30 12:02:20;;;;;;;;;;;14.30;42.70;;;;;;5016067;28;19939;-89
2022/01/30 12:04:54;;;;;;;;;;;14.30;42.20;;;;;;5011957;28;19921;-90
2022/01/30 12:07:37;;;;;;;;;;;14.10;40.70;;;;;;5014824;28;19921;-89
2022/01/30 12:10:15;;;;;;;;;;;14.10;41.70;;;;;;5028063;28;19953;-89
2022/01/30 12:12:47;;;;;;;;;;;14.10;43.50;;;;;;5015119;28;20000;-89
2022/01/30 12:15:34;;;;;;;;;;;14.20;41.30;;;;;;5146711;23;19977;-89
2022/01/30 12:18:04;;;;;;;;;;;14.30;41.90;;;;;;4972165;28;19918;-89
2022/01/30 12:20:49;;;;;;;;;;;14.40;42.80;;;;;;4951745;28;20020;-90
2022/01/30 12:23:28;;;;;;;;;;;14.50;42.30;;;;;;4961593;28;19925;-89
2022/01/30 12:26:03;;;;;;;;;;;14.40;41.40;;;;;;4972325;28;20438;-89
2022/01/30 12:28:42;;;;;;;;;;;14.40;43.20;;;;;;5085263;23;19930;-89
2022/01/30 12:31:23;;;;;;;;;;;14.40;42.50;;;;;;4971521;28;19914;-89
2022/01/30 12:33:57;;;;;;;;;;;14.40;42.80;;;;;;5001258;23;19933;-89
2022/01/30 12:36:22;;;;;;;;;;;14.40;43.60;;;;;;4973460;28;19993;-90
2022/01/30 12:38:51;;;;;;;;;;;14.50;43.80;;;;;;4983468;28;19957;-87
2022/01/30 12:41:21;;;;;;;;;;;14.50;42.10;;;;;;4999409;28;19918;-88
2022/01/30 12:43:51;;;;;;;;;;;14.40;42.10;;;;;;4983811;28;20441;-88
2022/01/30 12:46:17;;;;;;;;;;;14.40;42.20;;;;;;4995993;28;19910;-89
2022/01/30 12:48:42;;;;;;;;;;;14.40;42.40;;;;;;5002303;28;19989;-89
2022/01/30 12:51:13;;;;;;;;;;;14.40;41.80;;;;;;4972384;28;19914;-88
2022/01/30 12:53:39;;;;;;;;;;;14.30;40.10;;;;;;4982166;28;20019;-88
2022/01/30 12:56:05;;;;;;;;;;;14.20;39.40;;;;;;4992336;28;19950;-87
2022/01/30 12:58:33;;;;;;;;;;;14.20;40.70;;;;;;4980639;28;20005;-87
2022/01/30 13:01:06;;;;;;;;;;;14.20;40.20;;;;;;5057122;23;19925;-89
2022/01/30 13:03:32;;;;;;;;;;;14.00;38.80;;;;;;5003196;28;19920;-88
2022/01/30 13:08:49;;;;;;;;;;;14.00;40.90;;;;;;5043797;23;19916;-96
2022/01/30 13:11:18;;;;;;;;;;;14.10;41.30;;;;;;5024617;28;19922;-95
2022/01/30 13:13:55;;;;;;;;;;;14.10;41.50;;;;;;4992171;28;19914;-94
2022/01/30 13:16:21;;;;;;;;;;;14.20;42.10;;;;;;5004298;28;19937;-93
2022/01/30 13:18:47;;;;;;;;;;;14.20;42.00;;;;;;4998598;28;20338;-91
2022/01/30 13:21:13;;;;;;;;;;;14.20;41.70;;;;;;5002624;28;19918;-94
2022/01/30 13:23:38;;;;;;;;;;;14.30;41.50;;;;;;5022052;28;19917;-93
2022/01/30 13:26:06;;;;;;;;;;;14.30;41.70;;;;;;5015108;28;19929;-93
2022/01/30 13:28:31;;;;;;;;;;;14.20;41.60;;;;;;5029954;28;19913;-95
2022/01/30 13:31:11;;;;;;;;;;;14.30;40.20;;;;;;5024625;28;19916;-93
2022/01/30 13:33:37;;;;;;;;;;;14.30;40.50;;;;;;5014209;28;19960;-90
2022/01/30 13:36:02;;;;;;;;;;;14.30;40.20;;;;;;5023629;28;19928;-94
2022/01/30 13:38:28;;;;;;;;;;;14.30;40.10;;;;;;5043140;28;20432;-93
2022/01/30 13:40:58;;;;;;;;;;;14.20;40.20;;;;;;5022703;28;20364;-92
2022/01/30 13:43:34;;;;;;;;;;;14.30;40.20;;;;;;5041020;28;19990;-92
2022/01/30 13:48:44;;;;;;;;;;;14.20;41.20;;;;;;5038646;28;19920;-93
2022/01/30 13:51:09;;;;;;;;;;;14.20;39.50;;;;;;5026006;28;20331;-94
2022/01/30 13:53:40;;;;;;;;;;;14.20;40.30;;;;;;5038890;28;19964;-93
2022/01/30 13:56:07;;;;;;;;;;;14.10;39.90;;;;;;5025546;28;19913;-93
2022/01/30 13:58:43;;;;;;;;;;;14.00;39.30;;;;;;5045728;28;19920;-92
2022/01/30 14:01:16;;;;;;;;;;;14.00;38.40;;;;;;5009240;28;19929;-95
2022/01/30 14:03:42;;;;;;;;;;;13.90;39.00;;;;;;5025935;28;20338;-94
2022/01/30 14:06:22;;;;;;;;;;;13.80;39.20;;;;;;5023083;28;19935;-93
2022/01/30 14:08:51;;;;;;;;;;;13.80;39.70;;;;;;5029595;28;19917;-93
2022/01/30 14:11:17;;;;;;;;;;;13.80;39.00;;;;;;5028416;28;19909;-93
2022/01/30 14:13:43;;;;;;;;;;;13.60;38.20;;;;;;5024296;28;19964;-95
2022/01/30 14:16:16;;;;;;;;;;;13.60;38.50;;;;;;5031420;28;19917;-94
2022/01/30 14:18:45;;;;;;;;;;;13.50;38.40;;;;;;5031999;28;19917;-94
2022/01/30 14:21:15;;;;;;;;;;;13.50;39.50;;;;;;5040600;28;19948;-95
2022/01/30 14:23:40;;;;;;;;;;;13.50;39.00;;;;;;5038268;28;19916;-93
2022/01/30 14:26:18;;;;;;;;;;;13.40;38.40;;;;;;5021989;28;19913;-94
2022/01/30 14:28:43;;;;;;;;;;;13.40;38.60;;;;;;5020776;28;20324;-93
2022/01/30 14:31:17;;;;;;;;;;;13.40;38.80;;;;;;5029627;28;19909;-95
2022/01/30 14:33:48;;;;;;;;;;;13.40;39.10;;;;;;5021583;28;20004;-93
2022/01/30 14:36:15;;;;;;;;;;;13.40;38.00;;;;;;5031112;28;19928;-93
2022/01/30 14:38:45;;;;;;;;;;;13.30;37.90;;;;;;5021300;28;19921;-92
2022/01/30 14:41:11;;;;;;;;;;;13.30;38.60;;;;;;5037554;28;19932;-93
2022/01/30 14:43:36;;;;;;;;;;;13.30;39.50;;;;;;5038138;28;19913;-93
2022/01/30 14:46:02;;;;;;;;;;;13.40;39.70;;;;;;5035923;28;19913;-93
2022/01/30 14:48:28;;;;;;;;;;;13.40;39.90;;;;;;5020687;28;19940;-93
2022/01/30 14:50:53;;;;;;;;;;;13.40;40.40;;;;;;5019334;28;20379;-93
2022/01/30 14:53:19;;;;;;;;;;;13.50;41.10;;;;;;5019247;28;19913;-94
2022/01/30 14:55:44;;;;;;;;;;;13.60;41.50;;;;;;5020713;28;19931;-92
2022/01/30 14:58:12;;;;;;;;;;;13.60;41.70;;;;;;5038024;28;19920;-94
2022/01/30 15:00:38;;;;;;;;;;;13.60;40.90;;;;;;5019376;28;19917;-93
2022/01/30 15:03:04;;;;;;;;;;;13.60;41.20;;;;;;5019551;28;19913;-92
2022/01/30 15:05:30;;;;;;;;;;;13.60;41.00;;;;;;5012545;28;19921;-92
2022/01/30 15:07:57;;;;;;;;;;;13.50;40.30;;;;;;4997878;28;19920;-92
2022/01/30 15:10:25;;;;;;;;;;;13.50;40.00;;;;;;5014646;28;19918;-93
2022/01/30 15:12:51;;;;;;;;;;;13.50;40.50;;;;;;5017167;28;19920;-93
2022/01/30 15:15:17;;;;;;;;;;;13.40;40.60;;;;;;5015666;28;20000;-93
2022/01/30 15:17:42;;;;;;;;;;;13.40;39.80;;;;;;4998247;28;19943;-92
2022/01/30 15:22:33;;;;;;;;;;;13.30;39.80;;;;;;5013828;28;19932;-92
2022/01/30 15:24:59;;;;;;;;;;;13.30;40.70;;;;;;4998774;28;19925;-92
2022/01/30 15:27:25;;;;;;;;;;;13.20;40.30;;;;;;4999768;28;20052;-93